createdAt,value
2018-06-10T00:01:42.537Z,93.27
2018-06-10T00:04:13.149Z,92.42
2018-06-10T00:06:43.223Z,92.32
2018-06-10T00:09:13.131Z,92.60
2018-06-10T00:11:43.159Z,90.95
2018-06-10T00:14:14.591Z,89.74
2018-06-10T00:16:44.759Z,91.28
2018-06-10T00:19:15.069Z,93.29
2018-06-10T00:21:44.931Z,90.59
2018-06-10T00:24:15.237Z,89.77
2018-06-10T00:26:45.228Z,89.46
2018-06-10T00:29:21.708Z,92.47
2018-06-10T00:31:51.903Z,93.18
2018-06-10T00:34:21.775Z,91.34
2018-06-10T00:36:51.672Z,89.15
2018-06-10T00:39:21.781Z,90.21
2018-06-10T00:41:51.704Z,91.84
2018-06-10T00:44:21.808Z,89.94
2018-06-10T00:46:52.285Z,90.57
2018-06-10T00:49:22.355Z,93.56
2018-06-10T00:51:52.713Z,94.25
2018-06-10T00:54:23.092Z,93.42
2018-06-10T00:56:53.822Z,91.77
2018-06-10T00:59:24.257Z,93.95
2018-06-10T01:01:54.226Z,95.47
2018-06-10T01:04:24.641Z,96.68
2018-06-10T01:06:54.498Z,99.26
2018-06-10T01:09:24.687Z,97.83
2018-06-10T01:11:54.628Z,95.80
2018-06-10T01:14:24.656Z,99.15
2018-06-10T01:16:55.025Z,100.00
2018-06-10T01:19:25.220Z,100.00
2018-06-10T01:21:55.233Z,100.00
2018-06-10T01:24:25.152Z,100.00
2018-06-10T01:26:55.046Z,100.00
2018-06-10T01:29:25.305Z,100.00
2018-06-10T01:31:55.693Z,100.00
2018-06-10T01:34:25.809Z,100.00
2018-06-10T01:36:56.005Z,100.00
2018-06-10T01:39:26.307Z,100.00
2018-06-10T01:41:56.416Z,100.00
2018-06-10T01:44:26.571Z,100.00
2018-06-10T01:46:57.350Z,100.00
2018-06-10T01:49:27.752Z,100.00
2018-06-10T01:51:57.852Z,99.54
2018-06-10T01:54:27.671Z,100.00
2018-06-10T01:56:57.891Z,99.54
2018-06-10T01:59:27.792Z,97.68
2018-06-10T02:01:58.889Z,97.50
2018-06-10T02:04:29.093Z,98.96
2018-06-10T02:06:59.356Z,97.37
2018-06-10T02:09:29.525Z,96.60
2018-06-10T02:11:59.431Z,95.66
2018-06-10T02:14:29.288Z,97.20
2018-06-10T02:16:59.620Z,97.85
2018-06-10T02:19:29.989Z,96.58
2018-06-10T02:22:00.431Z,93.96
2018-06-10T02:24:30.661Z,94.53
2018-06-10T02:27:00.645Z,94.76
2018-06-10T02:29:30.521Z,96.03
2018-06-10T02:32:00.504Z,97.36
2018-06-10T02:34:30.523Z,96.89
2018-06-10T02:37:00.604Z,94.39
2018-06-10T02:39:30.501Z,95.12
2018-06-10T02:42:00.519Z,96.68
2018-06-10T02:44:30.812Z,94.75
2018-06-10T02:47:01.116Z,94.05
2018-06-10T02:49:31.081Z,95.80
2018-06-10T02:52:01.620Z,94.46
2018-06-10T02:54:31.584Z,94.02
2018-06-10T02:57:01.544Z,93.13
2018-06-10T02:59:31.671Z,94.03
2018-06-10T03:02:01.855Z,93.04
2018-06-10T03:04:32.071Z,95.83
2018-06-10T03:07:02.189Z,94.17
2018-06-10T03:09:32.180Z,94.52
2018-06-10T03:12:02.492Z,94.39
2018-06-10T03:14:32.403Z,91.61
2018-06-10T03:17:02.437Z,94.84
2018-06-10T03:19:32.473Z,95.14
2018-06-10T03:22:02.713Z,95.79
2018-06-10T03:24:32.733Z,91.86
2018-06-10T03:27:02.843Z,92.52
2018-06-10T03:29:33.008Z,90.25
2018-06-10T03:32:03.485Z,91.74
2018-06-10T03:34:33.480Z,88.59
2018-06-10T03:37:03.712Z,90.21
2018-06-10T03:39:33.715Z,87.66
2018-06-10T03:42:03.947Z,87.41
2018-06-10T03:44:34.346Z,87.45
2018-06-10T03:47:04.434Z,84.81
2018-06-10T03:49:34.804Z,86.24
2018-06-10T03:52:04.876Z,86.81
2018-06-10T03:54:35.484Z,86.79
2018-06-10T03:57:05.379Z,88.10
2018-06-10T03:59:35.537Z,83.27
2018-06-10T04:02:05.755Z,84.63
2018-06-10T04:04:36.334Z,84.09
2018-06-10T04:07:06.653Z,86.51
2018-06-10T04:09:36.488Z,84.89
2018-06-10T04:12:06.488Z,83.90
2018-06-10T04:14:36.676Z,83.41
2018-06-10T04:17:07.064Z,86.35
2018-06-10T04:19:37.245Z,84.63
2018-06-10T04:22:07.931Z,85.02
2018-06-10T04:24:37.895Z,87.25
2018-06-10T04:27:07.825Z,85.12
2018-06-10T04:29:37.719Z,84.46
2018-06-10T04:32:07.803Z,84.38
2018-06-10T04:37:06.745Z,84.53
2018-06-10T04:39:37.072Z,85.31
2018-06-10T04:42:07.424Z,86.60
2018-06-10T04:44:37.235Z,84.34
2018-06-10T04:47:07.378Z,83.73
2018-06-10T04:49:37.384Z,82.02
2018-06-10T04:52:09.180Z,84.36
2018-06-10T04:54:39.139Z,85.79
2018-06-10T04:57:09.374Z,87.25
2018-06-10T04:59:39.939Z,87.86
2018-06-10T05:02:10.195Z,85.57
2018-06-10T05:04:40.099Z,84.76
2018-06-10T05:07:09.999Z,85.30
2018-06-10T05:09:39.943Z,84.27
2018-06-10T05:12:09.841Z,83.10
2018-06-10T05:14:39.830Z,80.92
2018-06-10T05:17:09.751Z,80.12
2018-06-10T05:19:41.398Z,77.90
2018-06-10T05:22:11.321Z,78.83
2018-06-10T05:24:41.392Z,78.97
2018-06-10T05:27:11.725Z,80.15
2018-06-10T05:29:41.948Z,77.43
2018-06-10T05:32:12.027Z,78.72
2018-06-10T05:34:42.000Z,77.43
2018-06-10T05:37:11.939Z,76.46
2018-06-10T05:39:41.955Z,75.51
2018-06-10T05:42:12.383Z,75.24
2018-06-10T05:44:42.524Z,75.91
2018-06-10T05:47:12.654Z,75.83
2018-06-10T05:49:42.661Z,75.74
2018-06-10T05:52:13.004Z,73.49
2018-06-10T05:54:42.816Z,73.28
2018-06-10T05:57:12.728Z,74.55
2018-06-10T05:59:42.681Z,73.29
2018-06-10T06:02:12.737Z,72.34
2018-06-10T06:04:42.683Z,72.83
2018-06-10T06:07:12.636Z,73.64
2018-06-10T06:09:43.460Z,69.68
2018-06-10T06:12:13.420Z,68.98
2018-06-10T06:14:43.316Z,70.87
2018-06-10T06:17:13.240Z,72.03
2018-06-10T06:19:43.254Z,71.25
2018-06-10T06:22:14.073Z,70.10
2018-06-10T06:24:43.948Z,71.17
2018-06-10T06:27:15.163Z,68.88
2018-06-10T06:29:45.034Z,69.72
2018-06-10T06:32:14.917Z,69.25
2018-06-10T06:34:44.855Z,70.46
2018-06-10T06:37:14.785Z,68.50
2018-06-10T06:39:44.805Z,67.88
2018-06-10T06:42:14.865Z,68.25
2018-06-10T06:44:44.852Z,66.61
2018-06-10T06:47:14.833Z,65.43
2018-06-10T06:49:44.946Z,65.39
2018-06-10T06:52:14.868Z,65.03
2018-06-10T06:54:45.213Z,65.90
2018-06-10T06:57:15.335Z,64.04
2018-06-10T06:59:45.639Z,64.22
2018-06-10T07:02:15.587Z,62.71
2018-06-10T07:04:45.815Z,62.07
2018-06-10T07:07:15.831Z,61.34
2018-06-10T07:09:45.985Z,60.90
2018-06-10T07:12:16.148Z,60.90
2018-06-10T07:14:46.226Z,59.55
2018-06-10T07:17:16.264Z,59.65
2018-06-10T07:19:46.541Z,60.52
2018-06-10T07:22:16.641Z,59.74
2018-06-10T07:24:46.992Z,61.32
2018-06-10T07:27:17.024Z,62.05
2018-06-10T07:29:47.445Z,61.16
2018-06-10T07:32:17.650Z,60.50
2018-06-10T07:34:47.851Z,61.58
2018-06-10T07:37:18.000Z,61.00
2018-06-10T07:39:47.992Z,62.20
2018-06-10T07:42:18.110Z,61.61
2018-06-10T07:44:48.057Z,63.65
2018-06-10T07:47:18.203Z,62.70
2018-06-10T07:49:48.196Z,61.98
2018-06-10T07:52:18.391Z,63.34
2018-06-10T07:54:48.382Z,63.38
2018-06-10T07:57:18.555Z,63.34
2018-06-10T07:59:48.508Z,62.34
2018-06-10T08:02:18.633Z,62.06
2018-06-10T08:04:48.719Z,62.81
2018-06-10T08:07:18.936Z,62.32
2018-06-10T08:09:49.346Z,61.07
2018-06-10T08:12:19.448Z,61.85
2018-06-10T08:14:49.496Z,63.29
2018-06-10T08:17:19.645Z,61.22
2018-06-10T08:19:50.049Z,62.62
2018-06-10T08:22:20.139Z,62.74
2018-06-10T08:24:50.231Z,64.52
2018-06-10T08:27:20.305Z,65.61
2018-06-10T08:29:50.375Z,65.60
2018-06-10T08:32:20.797Z,65.47
2018-06-10T08:34:50.926Z,65.53
2018-06-10T08:37:21.139Z,63.95
2018-06-10T08:39:51.721Z,63.01
2018-06-10T08:42:21.816Z,66.05
2018-06-10T08:44:56.840Z,66.38
2018-06-10T08:47:27.199Z,64.48
2018-06-10T08:49:57.232Z,65.42
2018-06-10T08:52:27.513Z,62.15
2018-06-10T08:54:57.487Z,61.67
2018-06-10T08:57:27.543Z,62.31
2018-06-10T08:59:57.583Z,62.43
2018-06-10T09:02:27.740Z,63.00
2018-06-10T09:04:57.737Z,62.45
2018-06-10T09:07:27.791Z,64.48
2018-06-10T09:09:57.803Z,62.92
2018-06-10T09:12:27.969Z,63.73
2018-06-10T09:14:57.998Z,62.30
2018-06-10T09:17:28.203Z,62.56
2018-06-10T09:19:58.491Z,62.03
2018-06-10T09:22:28.508Z,62.18
2018-06-10T09:24:58.576Z,61.74
2018-06-10T09:27:28.648Z,61.46
2018-06-10T09:29:58.786Z,58.94
2018-06-10T09:32:29.154Z,58.69
2018-06-10T09:34:59.555Z,61.45
2018-06-10T09:37:29.577Z,61.09
2018-06-10T09:39:59.667Z,59.82
2018-06-10T09:42:29.777Z,61.35
2018-06-10T09:44:59.765Z,60.18
2018-06-10T09:47:29.915Z,60.30
2018-06-10T09:50:00.293Z,60.46
2018-06-10T09:52:30.553Z,60.70
2018-06-10T09:55:01.155Z,61.51
2018-06-10T09:57:31.282Z,62.50
2018-06-10T10:00:01.394Z,62.31
2018-06-10T10:02:31.559Z,60.82
2018-06-10T10:05:02.116Z,60.56
2018-06-10T10:07:32.163Z,63.21
2018-06-10T10:10:02.343Z,63.31
2018-06-10T10:12:32.828Z,61.81
2018-06-10T10:15:03.090Z,62.46
2018-06-10T10:17:33.504Z,60.00
2018-06-10T10:20:04.173Z,62.31
2018-06-10T10:22:34.593Z,64.24
2018-06-10T10:25:04.511Z,64.12
2018-06-10T10:27:35.083Z,64.23
2018-06-10T10:30:05.413Z,63.67
2018-06-10T10:32:35.641Z,60.00
2018-06-10T10:35:06.118Z,63.05
2018-06-10T10:37:36.113Z,63.24
2018-06-10T10:40:06.480Z,63.90
2018-06-10T10:42:36.525Z,63.68
2018-06-10T10:45:07.188Z,63.89
2018-06-10T10:47:37.239Z,65.98
2018-06-10T10:50:07.480Z,65.65
2018-06-10T10:52:37.829Z,66.81
2018-06-10T10:55:07.979Z,65.70
2018-06-10T10:57:38.280Z,65.85
2018-06-10T11:00:08.333Z,65.29
2018-06-10T11:02:38.585Z,66.11
2018-06-10T11:05:08.488Z,66.07
2018-06-10T11:07:38.499Z,64.96
2018-06-10T11:10:08.454Z,65.36
2018-06-10T11:12:38.502Z,66.90
2018-06-10T11:15:08.801Z,65.37
2018-06-10T11:17:39.154Z,65.55
2018-06-10T11:20:09.773Z,64.44
2018-06-10T11:22:40.048Z,62.42
2018-06-10T11:25:10.275Z,65.01
2018-06-10T11:27:40.534Z,65.48
2018-06-10T11:30:10.468Z,62.17
2018-06-10T11:32:40.894Z,64.15
2018-06-10T11:35:10.791Z,64.97
2018-06-10T11:37:40.798Z,63.51
2018-06-10T11:40:10.717Z,62.48
2018-06-10T11:42:41.031Z,62.33
2018-06-10T11:45:11.364Z,63.46
2018-06-10T11:47:41.563Z,61.98
2018-06-10T11:50:11.752Z,58.96
2018-06-10T11:52:41.868Z,59.81
2018-06-10T11:55:11.802Z,61.11
2018-06-10T11:57:41.871Z,60.88
2018-06-10T12:00:11.879Z,61.00
2018-06-10T12:02:42.093Z,61.41
2018-06-10T12:05:12.165Z,61.10
2018-06-10T12:07:42.157Z,58.84
2018-06-10T12:10:12.426Z,60.83
2018-06-10T12:12:42.565Z,62.71
2018-06-10T12:15:12.736Z,61.84
2018-06-10T12:17:43.070Z,60.77
2018-06-10T12:20:13.141Z,60.43
2018-06-10T12:22:43.224Z,60.69
2018-06-10T12:25:13.176Z,59.67
2018-06-10T12:27:43.134Z,57.77
2018-06-10T12:30:13.061Z,57.17
2018-06-10T12:32:42.931Z,58.77
2018-06-10T12:35:13.170Z,59.99
2018-06-10T12:37:43.521Z,59.74
2018-06-10T12:40:13.590Z,57.54
2018-06-10T12:42:44.115Z,59.97
2018-06-10T12:45:14.159Z,57.88
2018-06-10T12:47:44.341Z,57.69
2018-06-10T12:50:14.531Z,58.48
2018-06-10T12:52:44.592Z,59.95
2018-06-10T12:55:14.920Z,59.77
2018-06-10T12:57:44.749Z,58.58
2018-06-10T13:00:14.705Z,56.54
2018-06-10T13:02:44.672Z,57.60
2018-06-10T13:05:15.157Z,56.18
2018-06-10T13:07:45.129Z,51.79
2018-06-10T13:10:15.016Z,50.71
2018-06-10T13:12:44.967Z,49.98
2018-06-10T13:15:15.384Z,50.70
2018-06-10T13:17:45.415Z,47.07
2018-06-10T13:20:15.569Z,47.73
2018-06-10T13:22:45.540Z,48.29
2018-06-10T13:25:15.537Z,48.47
2018-06-10T13:27:45.469Z,45.70
2018-06-10T13:30:15.401Z,46.00
2018-06-10T13:32:45.313Z,45.91
2018-06-10T13:35:15.252Z,46.69
2018-06-10T13:37:45.077Z,47.84
2018-06-10T13:40:14.952Z,44.59
2018-06-10T13:42:45.172Z,43.84
2018-06-10T13:45:15.197Z,46.94
2018-06-10T13:47:45.453Z,46.05
2018-06-10T13:50:15.429Z,46.89
2018-06-10T13:52:45.375Z,49.50
2018-06-10T13:55:15.361Z,47.51
2018-06-10T13:57:45.460Z,49.46
2018-06-10T14:00:15.776Z,48.78
2018-06-10T14:02:46.114Z,48.98
2018-06-10T14:05:16.266Z,50.19
2018-06-10T14:07:46.535Z,48.89
2018-06-10T14:10:16.481Z,47.75
2018-06-10T14:12:46.680Z,47.65
2018-06-10T14:15:16.714Z,49.37
2018-06-10T14:17:46.689Z,46.26
2018-06-10T14:20:16.837Z,47.95
2018-06-10T14:22:46.819Z,47.41
2018-06-10T14:25:16.881Z,45.62
2018-06-10T14:27:47.262Z,46.06
2018-06-10T14:30:17.605Z,48.20
2018-06-10T14:32:47.661Z,51.46
2018-06-10T14:35:17.611Z,52.73
2018-06-10T14:37:47.892Z,50.18
2018-06-10T14:40:18.149Z,48.42
2018-06-10T14:42:48.075Z,50.95
2018-06-10T14:45:18.016Z,51.44
2018-06-10T14:47:47.852Z,53.76
2018-06-10T14:50:18.100Z,53.29
2018-06-10T14:52:48.265Z,50.38
2018-06-10T14:55:18.549Z,50.24
2018-06-10T14:57:48.565Z,49.58
2018-06-10T15:00:18.864Z,53.78
2018-06-10T15:02:49.092Z,56.29
2018-06-10T15:05:19.294Z,55.13
2018-06-10T15:07:49.205Z,55.59
2018-06-10T15:10:19.290Z,56.05
2018-06-10T15:12:49.679Z,52.68
2018-06-10T15:15:19.626Z,49.40
2018-06-10T15:17:50.080Z,50.28
2018-06-10T15:20:20.528Z,49.23
2018-06-10T15:22:50.896Z,47.98
2018-06-10T15:25:20.964Z,45.36
2018-06-10T15:27:50.952Z,45.88
2018-06-10T15:30:20.972Z,43.31
2018-06-10T15:32:51.265Z,42.41
2018-06-10T15:35:21.184Z,42.52
2018-06-10T15:37:51.322Z,41.53
2018-06-10T15:40:21.296Z,40.86
2018-06-10T15:42:51.699Z,40.31
2018-06-10T15:45:22.075Z,41.31
2018-06-10T15:47:52.276Z,41.09
2018-06-10T15:50:22.311Z,42.75
2018-06-10T15:52:52.365Z,43.79
2018-06-10T15:55:22.641Z,42.99
2018-06-10T15:57:53.027Z,41.38
2018-06-10T16:00:23.052Z,38.29
2018-06-10T16:02:52.975Z,37.82
2018-06-10T16:05:23.272Z,39.59
2018-06-10T16:07:53.409Z,41.91
2018-06-10T16:10:23.470Z,41.88
2018-06-10T16:12:53.362Z,41.39
2018-06-10T16:15:23.597Z,41.08
2018-06-10T16:17:53.947Z,43.82
2018-06-10T16:20:24.056Z,42.04
2018-06-10T16:22:53.942Z,41.83
2018-06-10T16:25:23.913Z,43.23
2018-06-10T16:27:53.958Z,44.72
2018-06-10T16:30:23.903Z,44.40
2018-06-10T16:32:53.891Z,43.51
2018-06-10T16:35:23.858Z,42.45
2018-06-10T16:37:53.861Z,42.97
2018-06-10T16:40:23.755Z,41.57
2018-06-10T16:42:53.767Z,42.42
2018-06-10T16:45:23.704Z,41.12
2018-06-10T16:47:54.100Z,42.70
2018-06-10T16:50:24.034Z,44.29
2018-06-10T16:52:54.248Z,43.96
2018-06-10T16:55:24.111Z,45.29
2018-06-10T16:57:54.207Z,45.99
2018-06-10T17:00:24.099Z,47.92
2018-06-10T17:02:54.224Z,48.01
2018-06-10T17:05:24.528Z,49.99
2018-06-10T17:07:54.592Z,50.48
2018-06-10T17:10:24.761Z,50.52
2018-06-10T17:12:55.279Z,51.36
2018-06-10T17:15:25.494Z,52.36
2018-06-10T17:17:55.385Z,55.06
2018-06-10T17:20:26.809Z,54.41
2018-06-10T17:22:56.703Z,54.86
2018-06-10T17:25:26.794Z,56.42
2018-06-10T17:27:56.824Z,57.91
2018-06-10T17:30:26.845Z,59.38
2018-06-10T17:32:56.910Z,61.03
2018-06-10T17:35:26.951Z,59.72
2018-06-10T17:37:57.138Z,60.01
2018-06-10T17:40:27.276Z,62.19
2018-06-10T17:42:57.321Z,63.15
2018-06-10T17:45:27.360Z,63.31
2018-06-10T17:47:57.269Z,63.70
2018-06-10T17:50:27.227Z,64.74
2018-06-10T17:52:57.157Z,64.92
2018-06-10T17:55:27.629Z,64.95
2018-06-10T17:57:57.473Z,65.00
2018-06-10T18:00:27.423Z,65.30
2018-06-10T18:02:57.428Z,64.87
2018-06-10T18:05:27.633Z,66.07
2018-06-10T18:07:57.581Z,67.19
2018-06-10T18:10:27.615Z,67.08
2018-06-10T18:12:57.555Z,67.45
2018-06-10T18:15:27.452Z,68.15
2018-06-10T18:17:57.476Z,69.41
2018-06-10T18:20:27.617Z,69.25
2018-06-10T18:22:57.700Z,69.51
2018-06-10T18:25:27.664Z,69.93
2018-06-10T18:27:57.632Z,69.33
2018-06-10T18:30:27.565Z,69.26
2018-06-10T18:32:57.643Z,68.91
2018-06-10T18:35:27.533Z,67.56
2018-06-10T18:37:57.644Z,67.87
2018-06-10T18:40:27.556Z,68.64
2018-06-10T18:42:57.616Z,68.89
2018-06-10T18:45:27.599Z,69.61
2018-06-10T18:47:57.764Z,69.55
2018-06-10T18:50:27.710Z,70.15
2018-06-10T18:52:57.809Z,70.87
2018-06-10T18:55:27.832Z,71.86
2018-06-10T18:57:58.054Z,71.52
2018-06-10T19:00:28.117Z,71.67
2018-06-10T19:02:58.088Z,73.26
2018-06-10T19:05:28.564Z,73.05
2018-06-10T19:07:58.552Z,73.28
2018-06-10T19:10:28.481Z,73.77
2018-06-10T19:12:58.451Z,73.68
2018-06-10T19:15:28.349Z,73.18
2018-06-10T19:17:58.553Z,73.63
2018-06-10T19:20:28.911Z,73.89
2018-06-10T19:22:58.866Z,75.58
2018-06-10T19:25:29.321Z,75.66
2018-06-10T19:27:59.281Z,75.88
2018-06-10T19:30:29.221Z,77.24
2018-06-10T19:32:59.516Z,76.66
2018-06-10T19:35:29.440Z,76.34
2018-06-10T19:37:59.385Z,74.31
2018-06-10T19:40:29.350Z,75.03
2018-06-10T19:42:59.697Z,76.48
2018-06-10T19:45:30.021Z,77.47
2018-06-10T19:47:59.963Z,78.95
2018-06-10T19:50:30.014Z,79.99
2018-06-10T19:53:00.062Z,78.55
2018-06-10T19:58:10.141Z,78.74
2018-06-10T20:00:40.084Z,78.45
2018-06-10T20:03:10.027Z,79.67
2018-06-10T20:05:39.990Z,80.07
2018-06-10T20:08:09.944Z,81.73
2018-06-10T20:10:39.907Z,80.95
2018-06-10T20:13:09.816Z,81.19
2018-06-10T20:15:39.814Z,80.10
2018-06-10T20:18:09.697Z,81.21
2018-06-10T20:20:39.907Z,82.26
2018-06-10T20:23:09.748Z,83.27
2018-06-10T20:25:39.762Z,83.72
2018-06-10T20:28:10.024Z,84.14
2018-06-10T20:30:40.090Z,83.48
2018-06-10T20:33:09.981Z,84.92
2018-06-10T20:35:40.767Z,84.50
2018-06-10T20:38:12.090Z,82.18
2018-06-10T20:40:42.493Z,84.53
2018-06-10T20:43:12.676Z,84.69
2018-06-10T20:45:43.235Z,84.84
2018-06-10T20:48:13.185Z,84.78
2018-06-10T20:50:43.292Z,83.28
2018-06-10T20:53:13.487Z,82.56
2018-06-10T20:55:43.693Z,82.61
2018-06-10T20:58:13.616Z,82.05
2018-06-10T21:00:43.644Z,80.39
2018-06-10T21:03:13.947Z,82.48
2018-06-10T21:05:44.516Z,81.38
2018-06-10T21:08:14.746Z,81.41
2018-06-10T21:10:45.140Z,82.67
2018-06-10T21:13:15.124Z,80.97
2018-06-10T21:15:45.136Z,80.94
2018-06-10T21:18:15.067Z,81.73
2018-06-10T21:20:44.962Z,80.00
2018-06-10T21:23:15.287Z,81.53
2018-06-10T21:25:45.182Z,82.04
2018-06-10T21:28:15.600Z,81.60
2018-06-10T21:30:45.456Z,80.83
2018-06-10T21:33:15.553Z,79.57
2018-06-10T21:35:45.687Z,77.80
2018-06-10T21:38:16.184Z,77.65
2018-06-10T21:40:46.399Z,77.20
2018-06-10T21:43:16.463Z,74.98
2018-06-10T21:45:46.560Z,74.71
2018-06-10T21:48:16.592Z,74.13
2018-06-10T21:50:46.862Z,73.21
2018-06-10T21:53:17.243Z,71.40
2018-06-10T21:55:47.579Z,71.74
2018-06-10T21:58:19.880Z,72.94
2018-06-10T22:00:49.811Z,72.02
2018-06-10T22:03:19.661Z,73.20
2018-06-10T22:05:50.272Z,72.96
2018-06-10T22:08:20.380Z,73.01
2018-06-10T22:10:50.433Z,73.14
2018-06-10T22:13:20.385Z,72.71
2018-06-10T22:15:50.380Z,73.03
2018-06-10T22:18:20.389Z,72.99
2018-06-10T22:20:50.237Z,71.55
2018-06-10T22:23:20.202Z,71.56
2018-06-10T22:25:50.354Z,71.34
2018-06-10T22:28:20.391Z,71.21
2018-06-10T22:30:50.305Z,71.36
2018-06-10T22:33:20.391Z,70.09
2018-06-10T22:35:50.378Z,70.40
2018-06-10T22:38:20.325Z,70.31
2018-06-10T22:40:50.399Z,70.58
2018-06-10T22:43:20.248Z,70.05
2018-06-10T22:45:50.293Z,70.16
2018-06-10T22:48:20.450Z,70.48
2018-06-10T22:50:50.523Z,69.14
2018-06-10T22:54:10.291Z,69.23
2018-06-10T22:56:40.393Z,69.38
2018-06-10T22:59:10.626Z,69.68
2018-06-10T23:01:40.982Z,69.36
2018-06-10T23:04:11.197Z,68.33
2018-06-10T23:06:41.159Z,67.27
2018-06-10T23:09:11.404Z,68.61
2018-06-10T23:11:41.364Z,67.73
2018-06-10T23:14:11.307Z,66.96
2018-06-10T23:16:42.116Z,67.53
2018-06-10T23:19:11.930Z,67.41
2018-06-10T23:21:42.878Z,66.72
2018-06-10T23:24:12.713Z,65.98
2018-06-10T23:26:42.748Z,65.42
2018-06-10T23:29:13.035Z,66.20
2018-06-10T23:31:43.093Z,66.34
2018-06-10T23:34:13.299Z,64.97
2018-06-10T23:36:43.365Z,64.94
2018-06-10T23:39:13.663Z,64.25
2018-06-10T23:41:43.785Z,63.15
2018-06-10T23:44:13.880Z,62.96
2018-06-10T23:46:44.008Z,62.71
2018-06-10T23:49:15.796Z,63.09
2018-06-10T23:51:46.619Z,64.26
2018-06-10T23:54:16.833Z,65.44
2018-06-10T23:56:47.069Z,64.58
2018-06-10T23:59:16.935Z,69.73
